createdAt,value
2022-09-16T00:01:01.834Z,17.20
2022-09-16T00:06:04.968Z,17.20
2022-09-16T00:11:07.872Z,17.10
2022-09-16T00:16:20.956Z,17.10
2022-09-16T00:21:24.094Z,17.00
2022-09-16T00:26:27.174Z,17.00
2022-09-16T00:31:31.467Z,17.00
2022-09-16T00:36:34.407Z,17.00
2022-09-16T00:41:37.727Z,17.00
2022-09-16T00:46:44.944Z,16.90
2022-09-16T00:51:51.825Z,16.90
2022-09-16T00:56:58.798Z,16.90
2022-09-16T01:02:09.176Z,16.90
2022-09-16T01:07:12.498Z,16.90
2022-09-16T01:12:15.391Z,16.80
2022-09-16T01:17:28.950Z,16.90
2022-09-16T01:22:47.153Z,16.80
2022-09-16T01:28:25.408Z,16.80
2022-09-16T01:33:38.755Z,16.80
2022-09-16T01:39:02.009Z,16.70
2022-09-16T01:44:15.173Z,16.70
2022-09-16T01:49:26.164Z,16.70
2022-09-16T01:54:34.878Z,16.60
2022-09-16T01:59:43.013Z,16.60
2022-09-16T02:04:52.512Z,16.60
2022-09-16T02:09:59.043Z,16.60
2022-09-16T02:15:05.973Z,16.60
2022-09-16T02:20:12.251Z,16.50
2022-09-16T02:25:19.165Z,16.50
2022-09-16T02:30:24.222Z,16.50
2022-09-16T02:35:29.804Z,16.50
2022-09-16T02:40:36.085Z,16.50
2022-09-16T02:45:47.171Z,16.40
2022-09-16T02:51:03.129Z,16.40
2022-09-16T02:56:11.176Z,16.40
2022-09-16T03:01:15.313Z,16.40
2022-09-16T03:06:22.501Z,16.30
2022-09-16T03:12:08.608Z,16.30
2022-09-16T03:17:24.343Z,16.30
2022-09-16T03:22:40.564Z,16.20
2022-09-16T03:27:50.503Z,16.20
2022-09-16T03:32:57.687Z,16.10
2022-09-16T03:38:03.683Z,16.10
2022-09-16T03:43:12.737Z,16.10
2022-09-16T03:48:15.654Z,16.00
2022-09-16T03:53:19.971Z,16.00
2022-09-16T03:58:23.042Z,15.90
2022-09-16T04:03:29.967Z,15.90
2022-09-16T04:08:39.567Z,15.90
2022-09-16T04:13:42.817Z,15.80
2022-09-16T04:18:45.705Z,15.70
2022-09-16T04:23:50.212Z,15.70
2022-09-16T04:28:54.621Z,15.70
2022-09-16T04:33:57.535Z,15.60
2022-09-16T04:39:01.795Z,15.60
2022-09-16T04:44:04.835Z,15.60
2022-09-16T04:49:07.764Z,15.50
2022-09-16T04:54:12.643Z,15.50
2022-09-16T04:59:15.748Z,15.50
2022-09-16T05:04:18.736Z,15.40
2022-09-16T05:09:23.053Z,15.40
2022-09-16T05:14:25.970Z,15.40
2022-09-16T05:19:29.513Z,15.40
2022-09-16T05:24:36.369Z,15.30
2022-09-16T05:29:39.343Z,15.30
2022-09-16T05:34:42.247Z,15.30
2022-09-16T05:39:46.622Z,15.30
2022-09-16T05:44:51.061Z,15.40
2022-09-16T05:49:54.820Z,15.40
2022-09-16T05:54:59.059Z,15.50
2022-09-16T06:00:02.054Z,15.50
2022-09-16T06:05:13.268Z,15.60
2022-09-16T06:10:18.578Z,15.60
2022-09-16T06:15:21.472Z,15.60
2022-09-16T06:20:24.390Z,15.60
2022-09-16T06:25:29.112Z,15.60
2022-09-16T06:30:32.102Z,15.60
2022-09-16T06:35:36.524Z,15.70
2022-09-16T06:40:40.769Z,15.70
2022-09-16T06:45:43.757Z,15.80
2022-09-16T06:50:46.797Z,15.80
2022-09-16T06:55:51.015Z,15.80
2022-09-16T07:00:53.918Z,15.80
2022-09-16T07:05:58.623Z,15.90
2022-09-16T07:11:04.773Z,16.00
2022-09-16T07:16:13.225Z,16.10
2022-09-16T07:21:18.529Z,16.10
2022-09-16T07:26:26.207Z,16.10
2022-09-16T07:31:31.467Z,16.20
2022-09-16T07:36:37.078Z,16.20
2022-09-16T07:41:42.587Z,16.30
2022-09-16T07:46:45.944Z,16.40
2022-09-16T07:51:48.983Z,16.50
2022-09-16T07:56:53.220Z,16.70
2022-09-16T08:01:56.247Z,16.70
2022-09-16T08:06:59.220Z,16.80
2022-09-16T08:12:06.393Z,16.80
2022-09-16T08:17:09.331Z,16.80
2022-09-16T08:22:12.220Z,16.80
2022-09-16T08:27:16.428Z,16.80
2022-09-16T08:32:19.329Z,16.90
2022-09-16T08:37:22.209Z,17.00
2022-09-16T08:42:32.693Z,17.10
2022-09-16T08:47:48.905Z,17.10
2022-09-16T08:52:53.742Z,17.20
2022-09-16T08:58:00.608Z,17.10
2022-09-16T09:03:15.543Z,17.20
2022-09-16T09:08:35.065Z,17.20
2022-09-16T09:13:50.987Z,17.30
2022-09-16T09:19:02.349Z,17.40
2022-09-16T09:24:32.142Z,17.40
2022-09-16T09:29:52.932Z,17.40
2022-09-16T09:35:16.122Z,17.30
2022-09-16T09:40:25.973Z,17.30
2022-09-16T09:45:34.323Z,17.30
2022-09-16T09:50:42.412Z,17.40
2022-09-16T09:55:45.516Z,17.50
2022-09-16T10:00:53.046Z,17.60
2022-09-16T10:05:56.228Z,17.70
2022-09-16T10:11:00.920Z,17.80
2022-09-16T10:16:13.167Z,17.90
2022-09-16T10:21:18.146Z,18.10
2022-09-16T10:26:23.603Z,18.10
2022-09-16T10:31:34.259Z,18.20
2022-09-16T10:36:37.692Z,18.30
2022-09-16T10:41:45.932Z,18.40
2022-09-16T10:46:57.414Z,18.50
2022-09-16T10:52:10.233Z,18.60
2022-09-16T10:57:24.941Z,18.80
2022-09-16T11:02:45.541Z,18.80
2022-09-16T11:07:59.583Z,18.80
2022-09-16T11:13:19.156Z,18.80
2022-09-16T11:18:39.512Z,18.70
2022-09-16T11:23:55.170Z,18.60
2022-09-16T11:29:15.123Z,18.60
2022-09-16T11:34:34.061Z,18.60
2022-09-16T11:39:56.158Z,18.80
2022-09-16T11:45:16.390Z,18.90
2022-09-16T11:50:31.646Z,19.20
2022-09-16T11:55:46.554Z,19.20
2022-09-16T12:00:50.953Z,19.10
2022-09-16T12:06:04.547Z,19.00
2022-09-16T12:11:19.222Z,18.90
2022-09-16T12:16:30.641Z,19.00
2022-09-16T12:21:40.648Z,19.10
2022-09-16T12:26:48.950Z,19.30
2022-09-16T12:31:56.670Z,19.60
2022-09-16T12:37:25.745Z,19.80
2022-09-16T12:43:13.318Z,19.90
2022-09-16T12:48:30.981Z,20.00
2022-09-16T12:54:19.096Z,20.00
2022-09-16T13:00:13.243Z,20.00
2022-09-16T13:05:23.059Z,20.00
2022-09-16T13:10:53.954Z,20.00
2022-09-16T13:15:57.823Z,20.00
2022-09-16T13:21:07.064Z,20.20
2022-09-16T13:26:11.725Z,20.30
2022-09-16T13:31:20.405Z,20.50
2022-09-16T13:36:33.970Z,20.50
2022-09-16T13:41:40.098Z,20.60
2022-09-16T13:46:43.168Z,20.70
2022-09-16T13:51:48.072Z,20.80
2022-09-16T13:57:12.844Z,20.90
2022-09-16T14:02:21.629Z,21.00
2022-09-16T14:07:35.385Z,21.20
2022-09-16T14:12:48.829Z,21.40
2022-09-16T14:17:57.096Z,21.40
2022-09-16T14:23:05.223Z,21.30
2022-09-16T14:28:11.157Z,20.90
2022-09-16T14:33:15.177Z,20.30
2022-09-16T14:38:43.786Z,19.80
2022-09-16T14:43:45.858Z,19.30
2022-09-16T14:48:49.652Z,18.90
2022-09-16T14:54:15.901Z,18.60
2022-09-16T14:59:20.920Z,18.30
2022-09-16T15:04:28.762Z,18.00
2022-09-16T15:09:39.491Z,17.70
2022-09-16T15:14:43.736Z,17.60
2022-09-16T15:19:52.760Z,17.50
2022-09-16T15:24:59.337Z,17.30
2022-09-16T15:30:05.812Z,17.40
2022-09-16T15:35:23.809Z,17.40
2022-09-16T15:40:35.710Z,17.50
2022-09-16T15:45:40.855Z,17.60
2022-09-16T15:50:47.415Z,17.70
2022-09-16T15:56:00.037Z,17.70
2022-09-16T16:01:08.328Z,17.70
2022-09-16T16:06:11.768Z,17.70
2022-09-16T16:11:16.312Z,17.60
2022-09-16T16:16:21.545Z,17.50
2022-09-16T16:21:24.451Z,17.40
2022-09-16T16:26:27.426Z,17.30
2022-09-16T16:31:32.636Z,17.10
2022-09-16T16:36:35.593Z,17.00
2022-09-16T16:41:38.478Z,17.00
2022-09-16T16:46:42.899Z,16.90
2022-09-16T16:51:46.120Z,16.90
2022-09-16T16:56:49.287Z,16.90
2022-09-16T17:01:55.124Z,16.90
2022-09-16T17:07:24.182Z,17.00
2022-09-16T17:12:21.415Z,16.90
2022-09-16T17:17:30.649Z,16.90
2022-09-16T17:22:34.440Z,16.70
2022-09-16T17:27:37.360Z,16.50
2022-09-16T17:32:41.577Z,16.40
2022-09-16T17:37:44.461Z,16.20
2022-09-16T17:42:52.065Z,16.10
2022-09-16T17:47:57.521Z,16.00
2022-09-16T17:53:00.392Z,15.90
2022-09-16T17:58:03.288Z,15.80
2022-09-16T18:03:07.648Z,15.70
2022-09-16T18:08:10.626Z,15.70
2022-09-16T18:13:13.530Z,15.70
2022-09-16T18:18:19.173Z,15.60
2022-09-16T18:23:22.640Z,15.50
2022-09-16T18:28:25.552Z,15.40
2022-09-16T18:33:30.008Z,15.30
2022-09-16T18:38:34.588Z,15.20
2022-09-16T18:43:38.774Z,15.10
2022-09-16T18:48:44.650Z,15.00
2022-09-16T18:53:48.564Z,15.00
2022-09-16T18:59:17.244Z,14.90
2022-09-16T19:04:19.143Z,14.90
2022-09-16T19:09:24.384Z,14.80
2022-09-16T19:14:27.479Z,14.70
2022-09-16T19:19:32.436Z,14.60
2022-09-16T19:24:35.507Z,14.60
2022-09-16T19:29:38.368Z,14.50
2022-09-16T19:34:42.619Z,14.40
2022-09-16T19:39:45.545Z,14.40
2022-09-16T19:44:49.304Z,14.40
2022-09-16T19:49:53.577Z,14.30
2022-09-16T19:54:56.573Z,14.40
2022-09-16T19:59:59.463Z,14.30
2022-09-16T20:05:05.088Z,14.20
2022-09-16T20:10:11.416Z,14.20
2022-09-16T20:15:14.453Z,14.10
2022-09-16T20:20:19.984Z,14.10
2022-09-16T20:25:23.794Z,14.00
2022-09-16T20:30:26.784Z,13.90
2022-09-16T20:35:34.682Z,13.90
2022-09-16T20:40:37.557Z,13.80
2022-09-16T20:45:40.653Z,13.80
2022-09-16T20:50:44.904Z,13.80
2022-09-16T20:55:47.795Z,13.70
2022-09-16T21:00:50.735Z,13.70
2022-09-16T21:06:01.309Z,13.70
2022-09-16T21:11:08.730Z,13.70
2022-09-16T21:16:15.356Z,13.60
2022-09-16T21:21:20.857Z,13.60
2022-09-16T21:26:25.589Z,13.60
2022-09-16T21:31:33.265Z,13.60
2022-09-16T21:36:39.849Z,13.60
2022-09-16T21:41:43.030Z,13.60
2022-09-16T21:46:46.909Z,13.60
2022-09-16T21:51:52.437Z,13.60
2022-09-16T21:56:55.375Z,13.60
2022-09-16T22:02:03.418Z,13.60
2022-09-16T22:07:10.724Z,13.60
2022-09-16T22:12:13.801Z,13.60
2022-09-16T22:17:18.336Z,13.60
2022-09-16T22:22:22.555Z,13.60
2022-09-16T22:27:25.547Z,13.60
2022-09-16T22:32:28.697Z,13.60
2022-09-16T22:37:32.966Z,13.60
2022-09-16T22:42:35.924Z,13.60
2022-09-16T22:47:39.148Z,13.60
2022-09-16T22:52:43.457Z,13.60
2022-09-16T22:57:46.357Z,13.60
2022-09-16T23:02:49.243Z,13.60
2022-09-16T23:07:53.619Z,13.60
2022-09-16T23:12:59.546Z,13.60
2022-09-16T23:18:02.415Z,13.50
2022-09-16T23:23:06.672Z,13.50
2022-09-16T23:28:09.547Z,13.50
2022-09-16T23:33:12.431Z,13.50
2022-09-16T23:38:16.899Z,13.40
2022-09-16T23:43:19.824Z,13.40
2022-09-16T23:48:22.715Z,13.40
2022-09-16T23:53:27.369Z,13.40
2022-09-16T23:58:30.921Z,13.40
